sensor_id;sensor_type;location;lat;lon;timestamp;P1;durP1;ratioP1;P2;durP2;ratioP2
46731;SDS011;32477;51.474;5.696;2023-07-28T00:01:26;9.65;;;4.43;;
46731;SDS011;32477;51.474;5.696;2023-07-28T00:03:52;8.05;;;4.35;;
46731;SDS011;32477;51.474;5.696;2023-07-28T00:06:18;9.35;;;4.53;;
46731;SDS011;32477;51.474;5.696;2023-07-28T00:08:43;13.55;;;5.15;;
46731;SDS011;32477;51.474;5.696;2023-07-28T00:11:10;10.85;;;4.88;;
46731;SDS011;32477;51.474;5.696;2023-07-28T00:13:37;12.43;;;4.85;;
46731;SDS011;32477;51.474;5.696;2023-07-28T00:16:03;11.98;;;4.20;;
46731;SDS011;32477;51.474;5.696;2023-07-28T00:18:29;10.40;;;5.20;;
46731;SDS011;32477;51.474;5.696;2023-07-28T00:20:55;12.07;;;5.00;;
46731;SDS011;32477;51.474;5.696;2023-07-28T00:23:20;9.52;;;5.47;;
46731;SDS011;32477;51.474;5.696;2023-07-28T00:25:46;10.45;;;5.18;;
46731;SDS011;32477;51.474;5.696;2023-07-28T00:28:12;8.73;;;5.03;;
46731;SDS011;32477;51.474;5.696;2023-07-28T00:30:38;11.88;;;5.57;;
46731;SDS011;32477;51.474;5.696;2023-07-28T00:33:04;12.05;;;5.75;;
46731;SDS011;32477;51.474;5.696;2023-07-28T00:35:30;10.20;;;5.20;;
46731;SDS011;32477;51.474;5.696;2023-07-28T00:37:56;11.27;;;5.88;;
46731;SDS011;32477;51.474;5.696;2023-07-28T00:40:22;12.00;;;5.82;;
46731;SDS011;32477;51.474;5.696;2023-07-28T00:42:48;12.15;;;6.55;;
46731;SDS011;32477;51.474;5.696;2023-07-28T00:45:13;11.95;;;6.10;;
46731;SDS011;32477;51.474;5.696;2023-07-28T00:47:39;9.70;;;5.70;;
46731;SDS011;32477;51.474;5.696;2023-07-28T00:50:06;14.00;;;6.15;;
46731;SDS011;32477;51.474;5.696;2023-07-28T00:52:33;10.43;;;6.03;;
46731;SDS011;32477;51.474;5.696;2023-07-28T00:54:59;14.77;;;6.20;;
46731;SDS011;32477;51.474;5.696;2023-07-28T00:57:25;12.75;;;5.57;;
46731;SDS011;32477;51.474;5.696;2023-07-28T00:59:51;13.63;;;6.43;;
46731;SDS011;32477;51.474;5.696;2023-07-28T01:02:18;12.27;;;6.35;;
46731;SDS011;32477;51.474;5.696;2023-07-28T01:04:44;14.63;;;5.65;;
46731;SDS011;32477;51.474;5.696;2023-07-28T01:07:13;10.20;;;5.70;;
46731;SDS011;32477;51.474;5.696;2023-07-28T01:12:16;8.10;;;5.15;;
46731;SDS011;32477;51.474;5.696;2023-07-28T01:14:42;12.15;;;5.47;;
46731;SDS011;32477;51.474;5.696;2023-07-28T01:17:08;11.75;;;5.47;;
46731;SDS011;32477;51.474;5.696;2023-07-28T01:19:34;12.50;;;5.30;;
46731;SDS011;32477;51.474;5.696;2023-07-28T01:25:01;13.52;;;5.80;;
46731;SDS011;32477;51.474;5.696;2023-07-28T01:27:42;12.52;;;5.28;;
46731;SDS011;32477;51.474;5.696;2023-07-28T01:30:09;11.45;;;6.30;;
46731;SDS011;32477;51.474;5.696;2023-07-28T01:32:35;14.55;;;6.00;;
46731;SDS011;32477;51.474;5.696;2023-07-28T01:35:04;14.50;;;5.53;;
46731;SDS011;32477;51.474;5.696;2023-07-28T01:37:29;14.68;;;6.22;;
46731;SDS011;32477;51.474;5.696;2023-07-28T01:39:55;12.15;;;5.60;;
46731;SDS011;32477;51.474;5.696;2023-07-28T01:42:22;11.68;;;5.57;;
46731;SDS011;32477;51.474;5.696;2023-07-28T01:44:48;12.35;;;5.90;;
46731;SDS011;32477;51.474;5.696;2023-07-28T01:47:15;12.82;;;6.05;;
46731;SDS011;32477;51.474;5.696;2023-07-28T01:49:40;12.20;;;5.80;;
46731;SDS011;32477;51.474;5.696;2023-07-28T01:52:06;12.98;;;5.40;;
46731;SDS011;32477;51.474;5.696;2023-07-28T01:54:32;14.27;;;6.40;;
46731;SDS011;32477;51.474;5.696;2023-07-28T01:56:57;12.10;;;6.20;;
46731;SDS011;32477;51.474;5.696;2023-07-28T01:59:23;13.07;;;6.07;;
46731;SDS011;32477;51.474;5.696;2023-07-28T02:01:48;15.05;;;6.32;;
46731;SDS011;32477;51.474;5.696;2023-07-28T02:04:14;9.55;;;5.15;;
46731;SDS011;32477;51.474;5.696;2023-07-28T02:06:41;9.88;;;5.50;;
46731;SDS011;32477;51.474;5.696;2023-07-28T02:09:06;11.20;;;5.30;;
46731;SDS011;32477;51.474;5.696;2023-07-28T02:11:32;9.80;;;5.35;;
46731;SDS011;32477;51.474;5.696;2023-07-28T02:13:58;12.45;;;6.03;;
46731;SDS011;32477;51.474;5.696;2023-07-28T02:16:24;16.25;;;5.90;;
46731;SDS011;32477;51.474;5.696;2023-07-28T02:18:52;13.43;;;6.07;;
46731;SDS011;32477;51.474;5.696;2023-07-28T02:21:18;12.82;;;6.10;;
46731;SDS011;32477;51.474;5.696;2023-07-28T02:23:44;14.95;;;6.85;;
46731;SDS011;32477;51.474;5.696;2023-07-28T02:26:09;16.92;;;7.53;;
46731;SDS011;32477;51.474;5.696;2023-07-28T02:28:35;15.98;;;6.53;;
46731;SDS011;32477;51.474;5.696;2023-07-28T02:31:01;18.85;;;7.18;;
46731;SDS011;32477;51.474;5.696;2023-07-28T02:33:27;17.00;;;6.93;;
46731;SDS011;32477;51.474;5.696;2023-07-28T02:35:54;14.80;;;6.72;;
46731;SDS011;32477;51.474;5.696;2023-07-28T02:38:21;18.52;;;7.53;;
46731;SDS011;32477;51.474;5.696;2023-07-28T02:40:46;16.48;;;6.50;;
46731;SDS011;32477;51.474;5.696;2023-07-28T02:43:12;14.77;;;6.78;;
46731;SDS011;32477;51.474;5.696;2023-07-28T02:45:37;16.83;;;7.00;;
46731;SDS011;32477;51.474;5.696;2023-07-28T02:48:03;20.88;;;7.90;;
46731;SDS011;32477;51.474;5.696;2023-07-28T02:50:29;17.00;;;7.85;;
46731;SDS011;32477;51.474;5.696;2023-07-28T02:52:54;18.95;;;8.80;;
46731;SDS011;32477;51.474;5.696;2023-07-28T02:55:20;24.00;;;8.55;;
46731;SDS011;32477;51.474;5.696;2023-07-28T02:57:46;20.45;;;8.38;;
46731;SDS011;32477;51.474;5.696;2023-07-28T03:00:11;20.85;;;8.77;;
46731;SDS011;32477;51.474;5.696;2023-07-28T03:02:37;22.42;;;8.48;;
46731;SDS011;32477;51.474;5.696;2023-07-28T03:05:03;26.23;;;9.82;;
46731;SDS011;32477;51.474;5.696;2023-07-28T03:07:29;23.83;;;9.68;;
46731;SDS011;32477;51.474;5.696;2023-07-28T03:09:55;21.70;;;9.63;;
46731;SDS011;32477;51.474;5.696;2023-07-28T03:12:21;26.35;;;10.25;;
46731;SDS011;32477;51.474;5.696;2023-07-28T03:14:46;32.35;;;11.90;;
46731;SDS011;32477;51.474;5.696;2023-07-28T03:17:12;30.13;;;10.73;;
46731;SDS011;32477;51.474;5.696;2023-07-28T03:19:37;27.60;;;10.73;;
46731;SDS011;32477;51.474;5.696;2023-07-28T03:22:03;28.50;;;11.60;;
46731;SDS011;32477;51.474;5.696;2023-07-28T03:24:29;32.78;;;12.50;;
46731;SDS011;32477;51.474;5.696;2023-07-28T03:26:54;30.88;;;12.27;;
46731;SDS011;32477;51.474;5.696;2023-07-28T03:29:21;31.83;;;11.95;;
46731;SDS011;32477;51.474;5.696;2023-07-28T03:31:47;39.08;;;12.95;;
46731;SDS011;32477;51.474;5.696;2023-07-28T03:34:13;33.40;;;11.88;;
46731;SDS011;32477;51.474;5.696;2023-07-28T03:36:38;31.08;;;12.23;;
46731;SDS011;32477;51.474;5.696;2023-07-28T03:39:04;40.13;;;14.07;;
46731;SDS011;32477;51.474;5.696;2023-07-28T03:41:30;37.97;;;13.30;;
46731;SDS011;32477;51.474;5.696;2023-07-28T03:43:56;41.15;;;13.68;;
46731;SDS011;32477;51.474;5.696;2023-07-28T03:46:21;46.40;;;14.50;;
46731;SDS011;32477;51.474;5.696;2023-07-28T03:48:47;35.45;;;14.85;;
46731;SDS011;32477;51.474;5.696;2023-07-28T03:51:12;43.67;;;14.93;;
46731;SDS011;32477;51.474;5.696;2023-07-28T03:53:38;41.50;;;14.98;;
46731;SDS011;32477;51.474;5.696;2023-07-28T03:56:04;39.55;;;15.00;;
46731;SDS011;32477;51.474;5.696;2023-07-28T03:58:30;53.15;;;16.60;;
46731;SDS011;32477;51.474;5.696;2023-07-28T04:00:55;43.80;;;14.77;;
46731;SDS011;32477;51.474;5.696;2023-07-28T04:03:21;45.58;;;14.95;;
46731;SDS011;32477;51.474;5.696;2023-07-28T04:05:46;48.05;;;15.43;;
46731;SDS011;32477;51.474;5.696;2023-07-28T04:08:12;40.05;;;14.20;;
46731;SDS011;32477;51.474;5.696;2023-07-28T04:10:38;42.65;;;15.13;;
46731;SDS011;32477;51.474;5.696;2023-07-28T04:13:03;43.53;;;15.20;;
46731;SDS011;32477;51.474;5.696;2023-07-28T04:15:29;41.42;;;15.30;;
46731;SDS011;32477;51.474;5.696;2023-07-28T04:17:54;44.95;;;16.00;;
46731;SDS011;32477;51.474;5.696;2023-07-28T04:20:20;36.17;;;15.85;;
46731;SDS011;32477;51.474;5.696;2023-07-28T04:22:46;41.35;;;16.63;;
46731;SDS011;32477;51.474;5.696;2023-07-28T04:25:12;44.67;;;16.88;;
46731;SDS011;32477;51.474;5.696;2023-07-28T04:27:37;38.80;;;16.92;;
46731;SDS011;32477;51.474;5.696;2023-07-28T04:30:03;39.35;;;15.60;;
46731;SDS011;32477;51.474;5.696;2023-07-28T04:32:29;41.10;;;16.00;;
46731;SDS011;32477;51.474;5.696;2023-07-28T04:34:55;41.13;;;16.33;;
46731;SDS011;32477;51.474;5.696;2023-07-28T04:37:22;36.17;;;16.52;;
46731;SDS011;32477;51.474;5.696;2023-07-28T04:39:47;38.35;;;17.13;;
46731;SDS011;32477;51.474;5.696;2023-07-28T04:42:13;39.42;;;16.98;;
46731;SDS011;32477;51.474;5.696;2023-07-28T04:44:38;42.45;;;16.65;;
46731;SDS011;32477;51.474;5.696;2023-07-28T04:47:05;41.50;;;17.10;;
46731;SDS011;32477;51.474;5.696;2023-07-28T04:49:31;40.80;;;16.67;;
46731;SDS011;32477;51.474;5.696;2023-07-28T04:51:57;38.58;;;17.08;;
46731;SDS011;32477;51.474;5.696;2023-07-28T04:54:22;45.00;;;17.00;;
46731;SDS011;32477;51.474;5.696;2023-07-28T04:56:48;43.17;;;17.33;;
46731;SDS011;32477;51.474;5.696;2023-07-28T04:59:18;40.83;;;18.35;;
46731;SDS011;32477;51.474;5.696;2023-07-28T05:01:43;39.58;;;17.13;;
46731;SDS011;32477;51.474;5.696;2023-07-28T05:04:09;46.40;;;17.67;;
46731;SDS011;32477;51.474;5.696;2023-07-28T05:06:35;41.75;;;18.10;;
46731;SDS011;32477;51.474;5.696;2023-07-28T05:09:00;41.17;;;17.98;;
46731;SDS011;32477;51.474;5.696;2023-07-28T05:11:26;42.33;;;18.48;;
46731;SDS011;32477;51.474;5.696;2023-07-28T05:13:52;44.63;;;18.58;;
46731;SDS011;32477;51.474;5.696;2023-07-28T05:16:17;41.97;;;17.65;;
46731;SDS011;32477;51.474;5.696;2023-07-28T05:18:43;48.70;;;19.05;;
46731;SDS011;32477;51.474;5.696;2023-07-28T05:21:09;42.33;;;19.67;;
46731;SDS011;32477;51.474;5.696;2023-07-28T05:23:35;51.72;;;21.05;;
46731;SDS011;32477;51.474;5.696;2023-07-28T05:26:00;48.50;;;20.55;;
46731;SDS011;32477;51.474;5.696;2023-07-28T05:28:26;49.22;;;21.65;;
46731;SDS011;32477;51.474;5.696;2023-07-28T05:30:52;38.47;;;18.80;;
46731;SDS011;32477;51.474;5.696;2023-07-28T05:33:17;44.38;;;20.88;;
46731;SDS011;32477;51.474;5.696;2023-07-28T05:35:43;53.67;;;20.70;;
46731;SDS011;32477;51.474;5.696;2023-07-28T05:38:08;47.28;;;20.40;;
46731;SDS011;32477;51.474;5.696;2023-07-28T05:40:34;44.88;;;20.83;;
46731;SDS011;32477;51.474;5.696;2023-07-28T05:43:00;51.95;;;22.17;;
46731;SDS011;32477;51.474;5.696;2023-07-28T05:45:25;48.20;;;22.73;;
46731;SDS011;32477;51.474;5.696;2023-07-28T05:47:51;54.25;;;22.58;;
46731;SDS011;32477;51.474;5.696;2023-07-28T05:50:18;55.00;;;24.58;;
46731;SDS011;32477;51.474;5.696;2023-07-28T05:52:43;60.38;;;27.60;;
46731;SDS011;32477;51.474;5.696;2023-07-28T05:55:09;69.30;;;27.95;;
46731;SDS011;32477;51.474;5.696;2023-07-28T05:57:35;68.95;;;29.10;;
46731;SDS011;32477;51.474;5.696;2023-07-28T06:00:00;76.90;;;30.33;;
46731;SDS011;32477;51.474;5.696;2023-07-28T06:02:26;68.15;;;30.58;;
46731;SDS011;32477;51.474;5.696;2023-07-28T06:04:52;83.60;;;32.35;;
46731;SDS011;32477;51.474;5.696;2023-07-28T06:07:18;73.18;;;31.65;;
46731;SDS011;32477;51.474;5.696;2023-07-28T06:09:44;71.70;;;30.80;;
46731;SDS011;32477;51.474;5.696;2023-07-28T06:12:09;66.45;;;29.10;;
46731;SDS011;32477;51.474;5.696;2023-07-28T06:14:35;68.60;;;30.23;;
46731;SDS011;32477;51.474;5.696;2023-07-28T06:17:00;62.72;;;28.17;;
46731;SDS011;32477;51.474;5.696;2023-07-28T06:19:26;60.67;;;28.75;;
46731;SDS011;32477;51.474;5.696;2023-07-28T06:21:52;65.72;;;27.25;;
46731;SDS011;32477;51.474;5.696;2023-07-28T06:24:18;58.25;;;27.35;;
46731;SDS011;32477;51.474;5.696;2023-07-28T06:26:44;55.83;;;24.35;;
46731;SDS011;32477;51.474;5.696;2023-07-28T06:29:09;49.67;;;24.17;;
46731;SDS011;32477;51.474;5.696;2023-07-28T06:31:35;47.63;;;22.52;;
46731;SDS011;32477;51.474;5.696;2023-07-28T06:34:01;49.10;;;21.98;;
46731;SDS011;32477;51.474;5.696;2023-07-28T06:36:26;39.95;;;20.50;;
46731;SDS011;32477;51.474;5.696;2023-07-28T06:38:52;35.40;;;18.83;;
46731;SDS011;32477;51.474;5.696;2023-07-28T06:41:20;30.75;;;16.88;;
46731;SDS011;32477;51.474;5.696;2023-07-28T06:43:46;34.72;;;16.30;;
46731;SDS011;32477;51.474;5.696;2023-07-28T06:46:13;32.95;;;14.85;;
46731;SDS011;32477;51.474;5.696;2023-07-28T06:48:39;25.27;;;14.05;;
46731;SDS011;32477;51.474;5.696;2023-07-28T06:51:05;22.38;;;13.55;;
46731;SDS011;32477;51.474;5.696;2023-07-28T06:53:31;19.42;;;11.80;;
46731;SDS011;32477;51.474;5.696;2023-07-28T06:55:57;22.13;;;13.05;;
46731;SDS011;32477;51.474;5.696;2023-07-28T06:58:22;17.58;;;11.13;;
46731;SDS011;32477;51.474;5.696;2023-07-28T07:00:48;18.33;;;10.98;;
46731;SDS011;32477;51.474;5.696;2023-07-28T07:03:14;21.33;;;11.02;;
46731;SDS011;32477;51.474;5.696;2023-07-28T07:05:39;20.27;;;10.75;;
46731;SDS011;32477;51.474;5.696;2023-07-28T07:08:05;19.50;;;9.95;;
46731;SDS011;32477;51.474;5.696;2023-07-28T07:10:31;13.90;;;9.27;;
46731;SDS011;32477;51.474;5.696;2023-07-28T07:12:56;15.13;;;9.38;;
46731;SDS011;32477;51.474;5.696;2023-07-28T07:15:22;18.98;;;8.77;;
46731;SDS011;32477;51.474;5.696;2023-07-28T07:17:48;16.33;;;8.55;;
46731;SDS011;32477;51.474;5.696;2023-07-28T07:20:13;11.45;;;8.10;;
46731;SDS011;32477;51.474;5.696;2023-07-28T07:22:40;12.38;;;8.57;;
46731;SDS011;32477;51.474;5.696;2023-07-28T07:25:06;11.45;;;7.13;;
46731;SDS011;32477;51.474;5.696;2023-07-28T07:27:32;12.82;;;7.63;;
46731;SDS011;32477;51.474;5.696;2023-07-28T07:29:58;19.73;;;9.40;;
46731;SDS011;32477;51.474;5.696;2023-07-28T07:32:24;15.02;;;7.47;;
46731;SDS011;32477;51.474;5.696;2023-07-28T07:34:49;12.73;;;7.85;;
46731;SDS011;32477;51.474;5.696;2023-07-28T07:37:15;11.82;;;7.65;;
46731;SDS011;32477;51.474;5.696;2023-07-28T07:39:41;9.38;;;7.38;;
46731;SDS011;32477;51.474;5.696;2023-07-28T07:42:09;14.30;;;7.30;;
46731;SDS011;32477;51.474;5.696;2023-07-28T07:44:36;10.40;;;6.60;;
46731;SDS011;32477;51.474;5.696;2023-07-28T07:47:02;8.10;;;6.40;;
46731;SDS011;32477;51.474;5.696;2023-07-28T07:49:38;10.57;;;6.45;;
46731;SDS011;32477;51.474;5.696;2023-07-28T07:52:03;13.73;;;6.13;;
46731;SDS011;32477;51.474;5.696;2023-07-28T07:54:30;9.80;;;5.88;;
46731;SDS011;32477;51.474;5.696;2023-07-28T07:56:56;7.93;;;5.55;;
46731;SDS011;32477;51.474;5.696;2023-07-28T07:59:21;7.53;;;5.90;;
46731;SDS011;32477;51.474;5.696;2023-07-28T08:01:47;8.48;;;5.45;;
46731;SDS011;32477;51.474;5.696;2023-07-28T08:04:12;7.18;;;5.45;;
46731;SDS011;32477;51.474;5.696;2023-07-28T08:06:38;6.97;;;4.85;;
46731;SDS011;32477;51.474;5.696;2023-07-28T08:09:04;8.77;;;4.60;;
46731;SDS011;32477;51.474;5.696;2023-07-28T08:11:29;7.68;;;5.00;;
46731;SDS011;32477;51.474;5.696;2023-07-28T08:13:55;5.80;;;5.20;;
46731;SDS011;32477;51.474;5.696;2023-07-28T08:16:20;6.85;;;5.35;;
46731;SDS011;32477;51.474;5.696;2023-07-28T08:18:46;5.43;;;4.93;;
46731;SDS011;32477;51.474;5.696;2023-07-28T08:21:12;6.57;;;4.63;;
46731;SDS011;32477;51.474;5.696;2023-07-28T08:23:37;4.30;;;3.50;;
46731;SDS011;32477;51.474;5.696;2023-07-28T08:26:03;5.53;;;4.00;;
46731;SDS011;32477;51.474;5.696;2023-07-28T08:28:29;5.53;;;4.13;;
46731;SDS011;32477;51.474;5.696;2023-07-28T08:30:55;7.28;;;4.60;;
46731;SDS011;32477;51.474;5.696;2023-07-28T08:33:21;5.75;;;4.60;;
46731;SDS011;32477;51.474;5.696;2023-07-28T08:35:47;13.93;;;5.00;;
46731;SDS011;32477;51.474;5.696;2023-07-28T08:38:13;5.40;;;3.85;;
46731;SDS011;32477;51.474;5.696;2023-07-28T08:40:39;6.07;;;4.45;;
46731;SDS011;32477;51.474;5.696;2023-07-28T08:43:05;6.78;;;3.78;;
46731;SDS011;32477;51.474;5.696;2023-07-28T08:45:31;9.93;;;3.58;;
46731;SDS011;32477;51.474;5.696;2023-07-28T08:47:56;10.93;;;9.18;;
46731;SDS011;32477;51.474;5.696;2023-07-28T08:50:22;8.43;;;6.40;;
46731;SDS011;32477;51.474;5.696;2023-07-28T08:52:48;5.53;;;4.07;;
46731;SDS011;32477;51.474;5.696;2023-07-28T08:55:15;4.50;;;3.75;;
46731;SDS011;32477;51.474;5.696;2023-07-28T08:57:42;5.43;;;3.53;;
46731;SDS011;32477;51.474;5.696;2023-07-28T09:00:11;4.28;;;3.17;;
46731;SDS011;32477;51.474;5.696;2023-07-28T09:02:39;4.90;;;3.30;;
46731;SDS011;32477;51.474;5.696;2023-07-28T09:05:05;4.35;;;3.10;;
46731;SDS011;32477;51.474;5.696;2023-07-28T09:07:35;4.93;;;2.42;;
46731;SDS011;32477;51.474;5.696;2023-07-28T09:10:04;10.05;;;2.45;;
46731;SDS011;32477;51.474;5.696;2023-07-28T09:12:33;4.13;;;2.67;;
46731;SDS011;32477;51.474;5.696;2023-07-28T09:14:59;4.72;;;1.83;;
46731;SDS011;32477;51.474;5.696;2023-07-28T09:17:24;2.60;;;2.40;;
46731;SDS011;32477;51.474;5.696;2023-07-28T09:19:53;6.05;;;2.63;;
46731;SDS011;32477;51.474;5.696;2023-07-28T09:22:20;4.10;;;2.08;;
46731;SDS011;32477;51.474;5.696;2023-07-28T09:24:47;2.20;;;2.00;;
46731;SDS011;32477;51.474;5.696;2023-07-28T09:27:23;5.40;;;1.85;;
46731;SDS011;32477;51.474;5.696;2023-07-28T09:29:51;1.90;;;1.70;;
46731;SDS011;32477;51.474;5.696;2023-07-28T09:32:26;4.88;;;2.38;;
46731;SDS011;32477;51.474;5.696;2023-07-28T09:35:10;5.03;;;1.92;;
46731;SDS011;32477;51.474;5.696;2023-07-28T09:37:39;3.05;;;2.10;;
46731;SDS011;32477;51.474;5.696;2023-07-28T09:40:11;5.45;;;1.77;;
46731;SDS011;32477;51.474;5.696;2023-07-28T09:42:38;2.95;;;1.90;;
46731;SDS011;32477;51.474;5.696;2023-07-28T09:45:07;2.83;;;2.05;;
46731;SDS011;32477;51.474;5.696;2023-07-28T09:47:35;2.13;;;1.73;;
46731;SDS011;32477;51.474;5.696;2023-07-28T09:50:02;3.58;;;2.03;;
46731;SDS011;32477;51.474;5.696;2023-07-28T09:52:31;3.38;;;1.95;;
46731;SDS011;32477;51.474;5.696;2023-07-28T09:55:01;2.67;;;2.03;;
46731;SDS011;32477;51.474;5.696;2023-07-28T09:57:32;2.40;;;2.20;;
46731;SDS011;32477;51.474;5.696;2023-07-28T10:00:10;2.38;;;1.88;;
46731;SDS011;32477;51.474;5.696;2023-07-28T10:02:38;4.55;;;1.85;;
46731;SDS011;32477;51.474;5.696;2023-07-28T10:05:05;3.03;;;2.10;;
46731;SDS011;32477;51.474;5.696;2023-07-28T10:07:32;4.68;;;1.88;;
46731;SDS011;32477;51.474;5.696;2023-07-28T10:10:01;7.72;;;1.80;;
46731;SDS011;32477;51.474;5.696;2023-07-28T10:12:39;2.22;;;1.70;;
46731;SDS011;32477;51.474;5.696;2023-07-28T10:15:18;3.90;;;1.70;;
46731;SDS011;32477;51.474;5.696;2023-07-28T10:17:53;3.10;;;1.98;;
46731;SDS011;32477;51.474;5.696;2023-07-28T10:20:29;3.30;;;1.67;;
46731;SDS011;32477;51.474;5.696;2023-07-28T10:25:35;5.30;;;2.10;;
46731;SDS011;32477;51.474;5.696;2023-07-28T10:28:03;2.90;;;2.30;;
46731;SDS011;32477;51.474;5.696;2023-07-28T10:30:51;3.83;;;2.50;;
46731;SDS011;32477;51.474;5.696;2023-07-28T10:33:34;4.38;;;2.90;;
46731;SDS011;32477;51.474;5.696;2023-07-28T10:42:01;1.95;;;1.75;;
46731;SDS011;32477;51.474;5.696;2023-07-28T10:44:33;2.35;;;1.80;;
46731;SDS011;32477;51.474;5.696;2023-07-28T10:47:00;3.15;;;1.67;;
46731;SDS011;32477;51.474;5.696;2023-07-28T10:49:26;6.95;;;1.75;;
46731;SDS011;32477;51.474;5.696;2023-07-28T10:51:53;1.48;;;1.38;;
46731;SDS011;32477;51.474;5.696;2023-07-28T10:54:19;2.10;;;1.30;;
46731;SDS011;32477;51.474;5.696;2023-07-28T10:56:47;1.52;;;1.42;;
46731;SDS011;32477;51.474;5.696;2023-07-28T10:59:14;2.03;;;1.55;;
46731;SDS011;32477;51.474;5.696;2023-07-28T11:01:42;1.35;;;1.25;;
46731;SDS011;32477;51.474;5.696;2023-07-28T11:04:19;4.57;;;1.20;;
46731;SDS011;32477;51.474;5.696;2023-07-28T11:06:46;1.83;;;1.33;;
46731;SDS011;32477;51.474;5.696;2023-07-28T11:09:14;3.00;;;1.70;;
46731;SDS011;32477;51.474;5.696;2023-07-28T11:11:42;2.40;;;1.63;;
46731;SDS011;32477;51.474;5.696;2023-07-28T11:14:08;6.25;;;1.70;;
46731;SDS011;32477;51.474;5.696;2023-07-28T11:16:35;2.83;;;1.50;;
46731;SDS011;32477;51.474;5.696;2023-07-28T11:19:02;3.67;;;1.48;;
46731;SDS011;32477;51.474;5.696;2023-07-28T11:21:32;2.78;;;1.30;;
46731;SDS011;32477;51.474;5.696;2023-07-28T11:24:04;2.25;;;1.40;;
46731;SDS011;32477;51.474;5.696;2023-07-28T11:26:34;1.50;;;1.40;;
46731;SDS011;32477;51.474;5.696;2023-07-28T11:29:00;1.42;;;1.15;;
46731;SDS011;32477;51.474;5.696;2023-07-28T11:31:26;1.48;;;1.38;;
46731;SDS011;32477;51.474;5.696;2023-07-28T11:33:52;5.50;;;1.40;;
46731;SDS011;32477;51.474;5.696;2023-07-28T11:36:24;1.20;;;1.10;;
46731;SDS011;32477;51.474;5.696;2023-07-28T11:41:22;5.38;;;1.17;;
46731;SDS011;32477;51.474;5.696;2023-07-28T11:43:48;1.20;;;1.10;;
46731;SDS011;32477;51.474;5.696;2023-07-28T11:51:50;2.58;;;1.10;;
46731;SDS011;32477;51.474;5.696;2023-07-28T11:54:18;5.88;;;1.10;;
46731;SDS011;32477;51.474;5.696;2023-07-28T11:56:50;7.38;;;0.98;;
46731;SDS011;32477;51.474;5.696;2023-07-28T11:59:17;3.40;;;1.10;;
46731;SDS011;32477;51.474;5.696;2023-07-28T12:04:23;3.45;;;1.17;;
46731;SDS011;32477;51.474;5.696;2023-07-28T12:09:28;1.27;;;1.17;;
46731;SDS011;32477;51.474;5.696;2023-07-28T12:11:54;4.10;;;1.77;;
46731;SDS011;32477;51.474;5.696;2023-07-28T12:14:34;2.95;;;1.15;;
46731;SDS011;32477;51.474;5.696;2023-07-28T12:17:00;1.33;;;1.23;;
46731;SDS011;32477;51.474;5.696;2023-07-28T12:19:28;4.05;;;1.05;;
46731;SDS011;32477;51.474;5.696;2023-07-28T12:21:54;1.52;;;1.17;;
46731;SDS011;32477;51.474;5.696;2023-07-28T12:24:20;1.85;;;1.27;;
46731;SDS011;32477;51.474;5.696;2023-07-28T12:26:46;2.83;;;1.50;;
46731;SDS011;32477;51.474;5.696;2023-07-28T12:29:13;1.50;;;1.23;;
46731;SDS011;32477;51.474;5.696;2023-07-28T12:31:39;2.47;;;1.30;;
46731;SDS011;32477;51.474;5.696;2023-07-28T12:34:04;1.10;;;0.98;;
46731;SDS011;32477;51.474;5.696;2023-07-28T12:36:30;1.08;;;0.98;;
46731;SDS011;32477;51.474;5.696;2023-07-28T12:38:56;0.85;;;0.85;;
46731;SDS011;32477;51.474;5.696;2023-07-28T12:41:22;1.48;;;1.17;;
46731;SDS011;32477;51.474;5.696;2023-07-28T12:43:47;3.80;;;1.05;;
46731;SDS011;32477;51.474;5.696;2023-07-28T12:46:13;0.90;;;0.90;;
46731;SDS011;32477;51.474;5.696;2023-07-28T12:48:39;2.30;;;1.10;;
46731;SDS011;32477;51.474;5.696;2023-07-28T12:51:05;1.35;;;1.00;;
46731;SDS011;32477;51.474;5.696;2023-07-28T12:53:31;3.38;;;1.00;;
46731;SDS011;32477;51.474;5.696;2023-07-28T12:55:57;1.85;;;0.93;;
46731;SDS011;32477;51.474;5.696;2023-07-28T12:58:22;1.17;;;0.95;;
46731;SDS011;32477;51.474;5.696;2023-07-28T13:00:48;3.40;;;0.93;;
46731;SDS011;32477;51.474;5.696;2023-07-28T13:03:14;1.25;;;0.90;;
46731;SDS011;32477;51.474;5.696;2023-07-28T13:05:39;2.72;;;1.08;;
46731;SDS011;32477;51.474;5.696;2023-07-28T13:08:08;1.83;;;0.70;;
46731;SDS011;32477;51.474;5.696;2023-07-28T13:10:34;0.60;;;0.60;;
46731;SDS011;32477;51.474;5.696;2023-07-28T13:12:59;1.00;;;0.70;;
46731;SDS011;32477;51.474;5.696;2023-07-28T13:15:25;0.50;;;0.50;;
46731;SDS011;32477;51.474;5.696;2023-07-28T13:17:50;1.42;;;0.77;;
46731;SDS011;32477;51.474;5.696;2023-07-28T13:20:16;2.63;;;0.63;;
46731;SDS011;32477;51.474;5.696;2023-07-28T13:22:42;1.33;;;0.93;;
46731;SDS011;32477;51.474;5.696;2023-07-28T13:25:07;0.90;;;0.68;;
46731;SDS011;32477;51.474;5.696;2023-07-28T13:27:33;0.77;;;0.70;;
46731;SDS011;32477;51.474;5.696;2023-07-28T13:29:59;1.27;;;0.73;;
46731;SDS011;32477;51.474;5.696;2023-07-28T13:32:25;0.95;;;0.80;;
46731;SDS011;32477;51.474;5.696;2023-07-28T13:34:51;0.95;;;0.60;;
46731;SDS011;32477;51.474;5.696;2023-07-28T13:37:18;1.20;;;0.77;;
46731;SDS011;32477;51.474;5.696;2023-07-28T13:39:44;0.80;;;0.45;;
46731;SDS011;32477;51.474;5.696;2023-07-28T13:42:10;1.10;;;0.75;;
46731;SDS011;32477;51.474;5.696;2023-07-28T13:44:37;5.55;;;0.60;;
46731;SDS011;32477;51.474;5.696;2023-07-28T13:47:03;0.80;;;0.60;;
46731;SDS011;32477;51.474;5.696;2023-07-28T13:49:30;0.35;;;0.30;;
46731;SDS011;32477;51.474;5.696;2023-07-28T13:51:56;0.57;;;0.50;;
46731;SDS011;32477;51.474;5.696;2023-07-28T13:54:22;0.88;;;0.70;;
46731;SDS011;32477;51.474;5.696;2023-07-28T13:56:47;3.28;;;0.88;;
46731;SDS011;32477;51.474;5.696;2023-07-28T13:59:13;1.08;;;0.70;;
46731;SDS011;32477;51.474;5.696;2023-07-28T14:01:39;2.20;;;0.70;;
46731;SDS011;32477;51.474;5.696;2023-07-28T14:04:04;1.25;;;0.80;;
46731;SDS011;32477;51.474;5.696;2023-07-28T14:06:30;5.60;;;1.10;;
46731;SDS011;32477;51.474;5.696;2023-07-28T14:08:55;2.97;;;2.33;;
46731;SDS011;32477;51.474;5.696;2023-07-28T14:11:21;6.90;;;2.10;;
46731;SDS011;32477;51.474;5.696;2023-07-28T14:13:47;4.05;;;1.30;;
46731;SDS011;32477;51.474;5.696;2023-07-28T14:16:12;0.93;;;0.70;;
46731;SDS011;32477;51.474;5.696;2023-07-28T14:18:38;1.55;;;1.00;;
46731;SDS011;32477;51.474;5.696;2023-07-28T14:21:05;3.28;;;1.70;;
46731;SDS011;32477;51.474;5.696;2023-07-28T14:23:31;3.15;;;1.10;;
46731;SDS011;32477;51.474;5.696;2023-07-28T14:25:56;2.28;;;1.10;;
46731;SDS011;32477;51.474;5.696;2023-07-28T14:28:22;1.80;;;0.90;;
46731;SDS011;32477;51.474;5.696;2023-07-28T14:30:48;1.77;;;1.20;;
46731;SDS011;32477;51.474;5.696;2023-07-28T14:33:16;5.07;;;1.48;;
46731;SDS011;32477;51.474;5.696;2023-07-28T14:35:46;3.75;;;1.45;;
46731;SDS011;32477;51.474;5.696;2023-07-28T14:38:13;2.10;;;1.40;;
46731;SDS011;32477;51.474;5.696;2023-07-28T14:40:39;3.35;;;1.30;;
46731;SDS011;32477;51.474;5.696;2023-07-28T14:43:05;3.25;;;1.38;;
46731;SDS011;32477;51.474;5.696;2023-07-28T14:45:31;5.88;;;1.55;;
46731;SDS011;32477;51.474;5.696;2023-07-28T14:47:57;3.53;;;1.05;;
46731;SDS011;32477;51.474;5.696;2023-07-28T14:50:23;1.70;;;1.30;;
46731;SDS011;32477;51.474;5.696;2023-07-28T14:52:49;1.77;;;1.05;;
46731;SDS011;32477;51.474;5.696;2023-07-28T14:55:14;1.58;;;1.27;;
46731;SDS011;32477;51.474;5.696;2023-07-28T14:57:40;1.15;;;1.00;;
46731;SDS011;32477;51.474;5.696;2023-07-28T15:00:06;1.13;;;0.90;;
46731;SDS011;32477;51.474;5.696;2023-07-28T15:02:32;1.10;;;1.00;;